Time;durP1;ratioP1;P1;durP2;ratioP2;P2;SDS_P1;SDS_P2;PMS_P1;PMS_P2;Temp;Humidity;BMP_temperature;BMP_pressure;BME280_temperature;BME280_humidity;BME280_pressure;Samples;Min_cycle;Max_cycle;Signal;HPM_P1;HPM_P2
2022/04/09 00:02:19;;;;;;;6.35;2.63;;;;;;;4.09;86.08;98794.88;5059592;28;20049;-73
2022/04/09 00:04:47;;;;;;;10.52;2.90;;;;;;;4.06;86.85;98792.47;5063147;28;20055;-72
2022/04/09 00:07:15;;;;;;;9.52;2.72;;;;;;;4.03;86.96;98796.09;5030473;28;20052;-72
2022/04/09 00:09:42;;;;;;;10.30;2.67;;;;;;;4.01;87.46;98795.38;5034021;28;20045;-73
2022/04/09 00:12:09;;;;;;;12.68;2.70;;;;;;;4.00;86.66;98804.09;5071358;28;20053;-72
2022/04/09 00:14:36;;;;;;;6.50;2.85;;;;;;;3.97;87.58;98814.69;5048355;28;20044;-72
2022/04/09 00:17:03;;;;;;;8.70;2.80;;;;;;;3.99;87.49;98814.59;5067606;28;20052;-72
2022/04/09 00:19:31;;;;;;;11.05;2.75;;;;;;;3.97;87.02;98822.50;5064444;28;20063;-72
2022/04/09 00:21:59;;;;;;;9.60;2.80;;;;;;;3.99;87.37;98819.81;5028081;28;20044;-73
2022/04/09 00:24:26;;;;;;;7.65;2.58;;;;;;;3.93;87.23;98821.03;5064911;28;20040;-73
2022/04/09 00:26:53;;;;;;;10.85;2.92;;;;;;;3.91;87.35;98817.66;5050728;28;20052;-72
2022/04/09 00:29:20;;;;;;;11.23;2.65;;;;;;;3.89;87.52;98819.53;5064515;28;20052;-72
2022/04/09 00:31:48;;;;;;;6.32;2.70;;;;;;;3.84;88.20;98815.53;5047309;28;20262;-72
2022/04/09 00:34:15;;;;;;;7.75;2.97;;;;;;;3.87;88.12;98821.38;5029190;28;20067;-72
2022/04/09 00:36:42;;;;;;;8.52;3.20;;;;;;;3.83;88.42;98814.72;5046893;28;20063;-72
2022/04/09 00:39:10;;;;;;;6.13;2.88;;;;;;;3.83;88.39;98811.25;5047084;28;20537;-72
2022/04/09 00:41:40;;;;;;;7.13;2.40;;;;;;;3.75;88.61;98815.16;5046241;28;20055;-72
2022/04/09 00:44:17;;;;;;;7.88;2.95;;;;;;;3.71;89.32;98816.25;5046817;28;20058;-73
2022/04/09 00:46:45;;;;;;;8.13;2.58;;;;;;;3.68;89.32;98820.81;5048800;28;20062;-72
2022/04/09 00:49:13;;;;;;;11.40;3.22;;;;;;;3.66;89.42;98818.31;5067630;28;20045;-73
2022/04/09 00:51:41;;;;;;;11.02;2.95;;;;;;;3.64;89.90;98824.53;5024637;28;20045;-73
2022/04/09 00:54:13;;;;;;;5.63;2.65;;;;;;;3.68;89.61;98826.00;5030533;28;20489;-73
2022/04/09 00:56:41;;;;;;;7.22;2.75;;;;;;;3.68;89.57;98823.41;5048352;28;20075;-73
2022/04/09 00:59:11;;;;;;;7.25;2.72;;;;;;;3.67;89.81;98830.38;5047866;28;20047;-73
2022/04/09 01:01:39;;;;;;;11.45;2.67;;;;;;;3.74;88.82;98833.47;5045300;28;20530;-73
2022/04/09 01:04:11;;;;;;;7.68;2.65;;;;;;;3.73;89.38;98831.78;5045604;28;20040;-73
2022/04/09 01:06:39;;;;;;;6.78;2.63;;;;;;;3.73;89.53;98836.97;5045470;28;20048;-73
2022/04/09 01:09:07;;;;;;;5.32;2.25;;;;;;;3.70;88.94;98831.97;5032839;28;20048;-73
2022/04/09 01:11:34;;;;;;;14.48;3.00;;;;;;;3.68;88.73;98844.22;5048918;28;20120;-74
2022/04/09 01:14:01;;;;;;;4.22;2.08;;;;;;;3.63;89.10;98854.06;5046021;28;20127;-74
2022/04/09 01:16:29;;;;;;;8.40;2.58;;;;;;;3.62;89.26;98853.25;5061427;28;20052;-73
2022/04/09 01:19:00;;;;;;;11.57;2.85;;;;;;;3.61;89.13;98853.34;5046238;28;20052;-74
2022/04/09 01:21:28;;;;;;;16.27;2.97;;;;;;;3.54;89.19;98855.44;5026431;28;20040;-73
2022/04/09 01:23:55;;;;;;;6.63;2.20;;;;;;;3.57;89.45;98857.06;5028698;28;20055;-73
2022/04/09 01:26:22;;;;;;;10.13;2.50;;;;;;;3.54;88.78;98861.50;5031958;28;20048;-73
2022/04/09 01:28:50;;;;;;;4.60;2.40;;;;;;;3.50;89.78;98869.56;5046126;28;20048;-73
2022/04/09 01:31:17;;;;;;;9.98;2.20;;;;;;;3.53;89.60;98865.03;5035688;28;20044;-72
2022/04/09 01:33:44;;;;;;;7.68;2.35;;;;;;;3.53;89.24;98880.63;5046496;28;20048;-72
2022/04/09 01:36:14;;;;;;;8.48;2.05;;;;;;;3.52;89.63;98881.56;5048537;28;20060;-72
2022/04/09 01:38:41;;;;;;;5.95;2.13;;;;;;;3.51;89.55;98879.91;5060464;28;20068;-72
2022/04/09 01:41:14;;;;;;;7.10;2.40;;;;;;;3.50;89.63;98882.56;5051870;28;20047;-72
2022/04/09 01:43:44;;;;;;;12.95;2.80;;;;;;;3.48;89.45;98885.28;5063036;28;20044;-73
2022/04/09 01:46:11;;;;;;;6.60;2.00;;;;;;;3.47;90.09;98887.97;5062847;28;20052;-72
2022/04/09 01:48:41;;;;;;;5.68;1.85;;;;;;;3.43;90.33;98884.69;5052937;28;20051;-72
2022/04/09 01:51:08;;;;;;;10.38;1.83;;;;;;;3.44;89.98;98888.97;5051206;28;20049;-72
2022/04/09 01:53:38;;;;;;;6.00;1.75;;;;;;;3.40;90.28;98895.28;5046108;28;20041;-73
2022/04/09 01:56:06;;;;;;;6.75;1.80;;;;;;;3.40;90.46;98889.22;5060523;28;20514;-72
2022/04/09 01:58:34;;;;;;;7.43;2.95;;;;;;;3.38;90.26;98896.28;5044226;28;20045;-73
2022/04/09 02:01:01;;;;;;;4.93;2.10;;;;;;;3.38;90.50;98901.47;5043448;28;20052;-73
2022/04/09 02:03:30;;;;;;;5.32;1.95;;;;;;;3.36;90.50;98903.34;5042861;28;20140;-73
2022/04/09 02:05:58;;;;;;;5.70;1.98;;;;;;;3.29;91.16;98908.91;5023385;28;20044;-72
2022/04/09 02:08:25;;;;;;;18.20;2.97;;;;;;;3.32;91.35;98907.88;5066237;28;20145;-72
2022/04/09 02:10:54;;;;;;;7.18;2.35;;;;;;;3.30;91.39;98920.97;5065173;28;20450;-73
2022/04/09 02:13:21;;;;;;;7.75;1.77;;;;;;;3.27;91.88;98921.13;5050140;28;20059;-73
2022/04/09 02:15:48;;;;;;;8.02;2.40;;;;;;;3.25;91.67;98919.56;5046978;28;20048;-73
2022/04/09 02:18:16;;;;;;;6.78;2.13;;;;;;;3.24;92.32;98925.66;5030885;28;20052;-73
2022/04/09 02:20:43;;;;;;;10.43;2.38;;;;;;;3.20;92.40;98927.63;5063854;28;20050;-74
2022/04/09 02:23:10;;;;;;;10.70;2.15;;;;;;;3.17;92.68;98922.56;5044354;28;20053;-72
2022/04/09 02:25:37;;;;;;;6.15;2.03;;;;;;;3.15;92.92;98934.84;5045232;28;20060;-73
2022/04/09 02:28:04;;;;;;;12.85;2.22;;;;;;;3.17;92.73;98929.53;5044564;28;20053;-73
2022/04/09 02:30:32;;;;;;;5.78;2.03;;;;;;;3.12;93.16;98941.97;5044669;28;20092;-73
2022/04/09 02:32:59;;;;;;;10.13;2.80;;;;;;;3.14;93.30;98940.09;5041806;28;20123;-73
2022/04/09 02:35:28;;;;;;;11.32;3.35;;;;;;;3.13;93.38;98939.28;5037361;28;20066;-73
2022/04/09 02:37:56;;;;;;;14.27;2.30;;;;;;;3.11;93.57;98940.25;5062743;28;20442;-72
2022/04/09 02:40:24;;;;;;;9.85;2.28;;;;;;;3.07;93.84;98947.41;5046024;28;20279;-73
2022/04/09 02:42:51;;;;;;;11.50;2.30;;;;;;;3.03;94.13;98953.72;5062473;28;20044;-73
2022/04/09 02:45:18;;;;;;;14.98;2.45;;;;;;;3.00;94.63;98953.88;5024764;28;20049;-73
2022/04/09 02:47:48;;;;;;;10.05;2.40;;;;;;;2.99;94.77;98955.63;5042365;28;20052;-74
2022/04/09 02:50:16;;;;;;;10.35;2.97;;;;;;;2.98;94.90;98966.94;5028401;28;20554;-73
2022/04/09 02:52:44;;;;;;;6.15;2.22;;;;;;;2.97;94.64;98967.88;5031742;28;20070;-73
2022/04/09 02:55:11;;;;;;;16.55;3.08;;;;;;;2.91;95.52;98980.34;5040142;28;20051;-73
2022/04/09 02:57:40;;;;;;;8.95;1.95;;;;;;;2.85;95.92;98981.53;5052988;28;20062;-73
2022/04/09 03:00:11;;;;;;;13.93;2.63;;;;;;;2.87;95.96;98994.44;5046887;28;20048;-73
2022/04/09 03:02:39;;;;;;;7.20;2.55;;;;;;;2.78;96.64;99009.59;5048901;28;20566;-73
2022/04/09 03:05:07;;;;;;;5.68;2.10;;;;;;;2.73;97.10;99002.97;5029718;28;20512;-73
2022/04/09 03:07:36;;;;;;;4.32;1.90;;;;;;;2.71;97.40;98995.25;5040820;28;20041;-73
2022/04/09 03:10:03;;;;;;;9.18;2.28;;;;;;;2.70;97.76;99001.38;5065772;28;20068;-72
2022/04/09 03:12:30;;;;;;;10.10;2.38;;;;;;;2.64;97.43;99009.47;5046647;28;20044;-72
2022/04/09 03:14:58;;;;;;;10.02;3.00;;;;;;;2.60;98.03;99018.34;5049284;28;20068;-72
2022/04/09 03:17:25;;;;;;;9.18;2.63;;;;;;;2.61;98.13;99020.06;5044617;28;20596;-72
2022/04/09 03:19:52;;;;;;;11.63;2.75;;;;;;;2.63;98.18;99019.97;5042216;28;20059;-72
2022/04/09 03:22:19;;;;;;;7.43;2.03;;;;;;;2.57;98.59;99025.47;5049649;28;20511;-73
2022/04/09 03:24:46;;;;;;;6.57;2.45;;;;;;;2.52;99.25;99030.88;5042426;28;20070;-73
2022/04/09 03:27:14;;;;;;;8.55;2.17;;;;;;;2.46;99.49;99036.41;5031756;28;20623;-73
2022/04/09 03:29:41;;;;;;;10.90;2.63;;;;;;;2.47;99.83;99038.91;5047617;28;21573;-72
2022/04/09 03:32:08;;;;;;;7.65;2.67;;;;;;;2.42;100.00;99035.72;5028743;28;20549;-73
2022/04/09 03:34:35;;;;;;;5.88;2.50;;;;;;;2.41;100.00;99041.00;5046166;28;20053;-73
2022/04/09 03:37:02;;;;;;;7.28;2.25;;;;;;;2.36;100.00;99048.19;5067260;28;20041;-72
2022/04/09 03:39:30;;;;;;;7.32;2.42;;;;;;;2.33;100.00;99048.34;5048503;28;20502;-73
2022/04/09 03:41:57;;;;;;;11.25;2.80;;;;;;;2.30;100.00;99059.72;5050222;28;20044;-72
2022/04/09 03:44:44;;;;;;;12.77;3.10;;;;;;;2.28;100.00;99058.94;5048459;28;20150;-73
2022/04/09 03:47:11;;;;;;;6.13;2.40;;;;;;;2.33;100.00;99066.50;5063118;28;20049;-73
2022/04/09 03:49:38;;;;;;;9.02;2.78;;;;;;;2.29;100.00;99065.81;5049387;28;20052;-73
2022/04/09 03:52:06;;;;;;;16.58;4.13;;;;;;;2.25;100.00;99072.06;5043382;28;20059;-74
2022/04/09 03:54:35;;;;;;;9.98;2.72;;;;;;;2.16;100.00;99070.81;5042532;28;20088;-73
2022/04/09 03:57:03;;;;;;;10.80;3.25;;;;;;;2.14;100.00;99082.16;5052686;28;20083;-73
2022/04/09 03:59:30;;;;;;;4.95;2.15;;;;;;;2.19;100.00;99099.19;5017045;28;20053;-73
2022/04/09 04:01:57;;;;;;;9.70;2.75;;;;;;;2.18;100.00;99100.13;5042951;28;20052;-73
2022/04/09 04:04:24;;;;;;;7.10;2.65;;;;;;;2.17;100.00;99100.19;5045086;28;20056;-73
2022/04/09 04:06:51;;;;;;;6.57;2.90;;;;;;;2.19;100.00;99112.16;5047419;28;20072;-73
2022/04/09 04:09:19;;;;;;;14.93;4.20;;;;;;;2.17;100.00;99114.03;5045495;28;20110;-73
2022/04/09 04:11:48;;;;;;;12.00;3.05;;;;;;;2.16;100.00;99121.84;5029411;28;20376;-74
2022/04/09 04:14:15;;;;;;;11.73;2.75;;;;;;;2.13;100.00;99122.03;5047924;28;20056;-72
2022/04/09 04:16:43;;;;;;;8.77;2.33;;;;;;;2.17;100.00;99128.75;5045377;28;20407;-72
2022/04/09 04:19:10;;;;;;;9.48;2.72;;;;;;;2.10;100.00;99133.38;5043327;28;20056;-72
2022/04/09 04:21:38;;;;;;;8.50;3.00;;;;;;;2.07;100.00;99132.69;5063592;28;20314;-75
2022/04/09 04:24:05;;;;;;;15.90;3.45;;;;;;;2.05;100.00;99142.31;5048960;28;20056;-73
2022/04/09 04:26:33;;;;;;;6.70;2.70;;;;;;;2.05;100.00;99145.75;5046526;28;20063;-74
2022/04/09 04:29:00;;;;;;;9.80;3.05;;;;;;;2.16;100.00;99155.59;5031638;28;20045;-73
2022/04/09 04:31:27;;;;;;;11.45;2.80;;;;;;;2.25;100.00;99170.75;5032662;28;20057;-73
2022/04/09 04:33:54;;;;;;;7.63;2.70;;;;;;;2.33;100.00;99170.38;5025747;28;20044;-73
2022/04/09 04:36:21;;;;;;;9.70;2.80;;;;;;;2.35;100.00;99165.97;5066802;28;20080;-73
2022/04/09 04:38:48;;;;;;;7.55;2.25;;;;;;;2.37;100.00;99169.31;5048770;28;20371;-73
2022/04/09 04:41:16;;;;;;;9.40;2.60;;;;;;;2.36;100.00;99175.44;5033565;28;20052;-73
2022/04/09 04:43:48;;;;;;;14.40;2.92;;;;;;;2.31;100.00;99182.63;5026023;28;20541;-73
2022/04/09 04:46:15;;;;;;;11.40;3.05;;;;;;;2.28;100.00;99194.81;5041873;28;20091;-74
2022/04/09 04:48:42;;;;;;;9.13;2.50;;;;;;;2.26;100.00;99198.41;5046655;28;20801;-73
2022/04/09 04:51:10;;;;;;;9.85;3.25;;;;;;;2.22;100.00;99207.25;5049613;28;20044;-73
2022/04/09 04:53:37;;;;;;;13.77;3.20;;;;;;;2.25;100.00;99204.50;5049540;28;20048;-73
2022/04/09 04:56:04;;;;;;;13.80;3.28;;;;;;;2.22;100.00;99210.69;5013871;28;20102;-74
2022/04/09 04:58:31;;;;;;;16.65;3.30;;;;;;;2.22;100.00;99215.88;5029561;28;20048;-73
2022/04/09 05:00:58;;;;;;;10.57;3.28;;;;;;;2.29;100.00;99221.63;5048787;28;20052;-73
2022/04/09 05:03:26;;;;;;;5.95;3.03;;;;;;;2.31;100.00;99222.41;5045736;28;20098;-75
2022/04/09 05:05:53;;;;;;;13.48;3.13;;;;;;;2.33;100.00;99238.75;5039269;28;20049;-74
2022/04/09 05:08:20;;;;;;;16.80;3.75;;;;;;;2.30;100.00;99238.91;5066486;28;20098;-74
2022/04/09 05:10:48;;;;;;;14.23;3.05;;;;;;;2.26;100.00;99250.34;5063325;28;20048;-73
2022/04/09 05:13:15;;;;;;;13.48;3.50;;;;;;;2.22;100.00;99262.63;5061903;28;20605;-73
2022/04/09 05:15:42;;;;;;;12.68;2.70;;;;;;;2.22;100.00;99257.44;5059719;28;20049;-74
2022/04/09 05:18:09;;;;;;;11.50;3.20;;;;;;;2.29;100.00;99263.16;5029105;28;20056;-74
2022/04/09 05:20:37;;;;;;;12.57;3.55;;;;;;;2.30;100.00;99270.06;5064231;28;20048;-74
2022/04/09 05:23:04;;;;;;;9.23;2.95;;;;;;;2.33;100.00;99282.03;5068919;28;20442;-74
2022/04/09 05:25:32;;;;;;;15.32;3.55;;;;;;;2.32;100.00;99283.81;5037913;28;20125;-74
2022/04/09 05:28:07;;;;;;;10.68;3.03;;;;;;;2.38;100.00;99295.66;5040702;28;20936;-73
2022/04/09 05:30:42;;;;;;;6.28;2.92;;;;;;;2.46;100.00;99293.53;5025944;28;20044;-74
2022/04/09 05:33:10;;;;;;;9.70;3.03;;;;;;;2.45;100.00;99295.31;5032441;28;20518;-74
2022/04/09 05:35:37;;;;;;;13.60;3.25;;;;;;;2.50;100.00;99295.94;5035687;28;20053;-74
2022/04/09 05:38:05;;;;;;;11.20;4.50;;;;;;;2.53;100.00;99307.94;5045599;28;20155;-74
2022/04/09 05:40:32;;;;;;;10.68;3.00;;;;;;;2.56;100.00;99312.13;5035253;28;20051;-73
2022/04/09 05:42:59;;;;;;;9.75;2.92;;;;;;;2.62;100.00;99320.50;5040464;28;20052;-74
2022/04/09 05:45:26;;;;;;;12.75;2.60;;;;;;;2.72;100.00;99323.50;5040489;28;20056;-75
2022/04/09 05:47:54;;;;;;;12.05;3.05;;;;;;;2.70;99.94;99335.72;5067203;28;20645;-74
2022/04/09 05:50:21;;;;;;;15.13;2.83;;;;;;;2.75;100.00;99332.00;5050280;28;20139;-74
2022/04/09 05:52:51;;;;;;;11.30;3.08;;;;;;;2.85;99.92;99345.38;5052589;28;20132;-74
2022/04/09 05:55:18;;;;;;;12.80;2.90;;;;;;;2.98;99.19;99351.69;5066476;28;20040;-75
2022/04/09 05:57:46;;;;;;;5.28;2.13;;;;;;;3.02;98.55;99361.03;5067373;28;20085;-75
2022/04/09 06:00:14;;;;;;;10.95;2.50;;;;;;;3.16;98.21;99362.13;5031466;28;20056;-76
2022/04/09 06:02:41;;;;;;;9.65;2.40;;;;;;;3.36;97.29;99364.56;5052149;28;20186;-74
2022/04/09 06:05:09;;;;;;;12.70;2.80;;;;;;;3.36;96.09;99368.94;5046317;28;20052;-74
2022/04/09 06:07:36;;;;;;;14.85;3.05;;;;;;;3.29;96.69;99371.84;5057112;28;20037;-74
2022/04/09 06:10:05;;;;;;;12.10;2.85;;;;;;;3.31;96.65;99376.97;5031159;28;20055;-74
2022/04/09 06:12:33;;;;;;;9.63;3.63;;;;;;;3.40;95.60;99391.28;5032677;28;20040;-74
2022/04/09 06:15:02;;;;;;;11.88;3.03;;;;;;;3.37;96.11;99378.41;5027732;28;20160;-74
2022/04/09 06:17:29;;;;;;;14.85;3.90;;;;;;;3.53;95.56;99403.59;5053677;28;20062;-74
2022/04/09 06:19:56;;;;;;;14.07;2.78;;;;;;;3.67;95.44;99392.50;5043644;28;20223;-74
2022/04/09 06:22:23;;;;;;;10.40;2.75;;;;;;;3.60;94.16;99417.13;5066028;28;20054;-75
2022/04/09 06:24:51;;;;;;;11.80;2.88;;;;;;;3.57;94.12;99411.28;5030566;28;20044;-75
2022/04/09 06:27:18;;;;;;;13.82;3.25;;;;;;;3.60;93.82;99416.28;5040985;28;20123;-75
2022/04/09 06:29:45;;;;;;;12.57;2.60;;;;;;;3.61;93.44;99421.44;5031146;28;20689;-74
2022/04/09 06:32:12;;;;;;;11.40;2.60;;;;;;;3.55;93.61;99414.75;5048047;28;20071;-74
2022/04/09 06:34:40;;;;;;;10.77;2.97;;;;;;;3.70;92.75;99415.78;5027564;28;20131;-74
2022/04/09 06:37:07;;;;;;;9.50;2.70;;;;;;;3.79;91.91;99417.09;5052050;28;20629;-74
2022/04/09 06:39:36;;;;;;;8.50;2.97;;;;;;;3.93;91.17;99427.63;5076753;22;20086;-63
2022/04/09 06:42:04;;;;;;;10.23;2.50;;;;;;;3.88;91.10;99431.41;5083992;28;20044;-66
2022/04/09 06:44:31;;;;;;;10.73;2.25;;;;;;;3.86;91.23;99433.22;5085122;28;20052;-63
2022/04/09 06:46:58;;;;;;;10.98;3.25;;;;;;;3.97;90.09;99436.16;5071334;28;20519;-63
2022/04/09 06:49:25;;;;;;;10.02;2.55;;;;;;;4.16;89.36;99443.84;5067132;28;20069;-62
2022/04/09 06:51:52;;;;;;;14.77;2.60;;;;;;;4.26;88.40;99445.91;5074937;28;20075;-63
2022/04/09 06:54:20;;;;;;;10.43;3.78;;;;;;;4.22;87.53;99454.78;5077676;28;20079;-64
2022/04/09 06:56:51;;;;;;;13.82;2.85;;;;;;;4.07;88.68;99458.19;5061995;28;20051;-63
2022/04/09 06:59:18;;;;;;;11.00;3.17;;;;;;;4.27;87.16;99458.00;5041213;28;20124;-74
2022/04/09 07:01:45;;;;;;;9.13;2.92;;;;;;;4.47;86.44;99471.78;5034857;28;20610;-74
2022/04/09 07:04:13;;;;;;;9.15;2.65;;;;;;;4.51;85.42;99466.31;5038714;28;20052;-74
2022/04/09 07:06:41;;;;;;;15.35;2.78;;;;;;;4.74;84.33;99462.50;5033462;28;20049;-73
2022/04/09 07:09:08;;;;;;;20.90;3.67;;;;;;;4.88;82.73;99469.56;5047908;28;20052;-73
2022/04/09 07:11:35;;;;;;;13.48;2.50;;;;;;;4.72;82.57;99477.34;5048834;28;20049;-73
2022/04/09 07:14:02;;;;;;;11.82;3.10;;;;;;;4.83;82.70;99468.97;5032786;28;20057;-74
2022/04/09 07:16:30;;;;;;;13.98;2.65;;;;;;;5.23;81.63;99479.84;5030615;28;20045;-74
2022/04/09 07:18:57;;;;;;;21.27;3.10;;;;;;;5.52;79.28;99501.72;5014073;28;20041;-74
2022/04/09 07:21:24;;;;;;;11.20;2.17;;;;;;;5.51;78.82;99487.81;5003738;28;20053;-73
2022/04/09 07:23:51;;;;;;;9.73;2.45;;;;;;;5.66;78.71;99486.09;5014059;28;20041;-74
2022/04/09 07:26:20;;;;;;;18.65;2.65;;;;;;;5.86;77.12;99489.38;5012515;28;20050;-73
2022/04/09 07:28:48;;;;;;;9.82;2.80;;;;;;;5.70;76.90;99503.28;4999601;28;20075;-73
2022/04/09 07:31:15;;;;;;;13.07;3.72;;;;;;;5.33;78.23;99500.13;5037754;28;20104;-74
2022/04/09 07:33:42;;;;;;;15.95;2.60;;;;;;;5.25;78.39;99517.97;5013521;28;20061;-74
2022/04/09 07:36:09;;;;;;;12.07;2.58;;;;;;;5.19;78.30;99514.88;5014716;28;20164;-73
2022/04/09 07:38:36;;;;;;;9.43;2.90;;;;;;;5.14;78.22;99530.75;5030778;28;20064;-73
2022/04/09 07:41:04;;;;;;;15.50;2.95;;;;;;;5.07;77.99;99525.03;5012683;28;20059;-74
2022/04/09 07:43:31;;;;;;;12.90;2.60;;;;;;;5.29;78.37;99519.47;5031670;28;20123;-74
2022/04/09 07:45:58;;;;;;;9.80;2.60;;;;;;;5.43;77.08;99533.53;5012583;28;20073;-74
2022/04/09 07:48:25;;;;;;;13.63;2.53;;;;;;;5.29;77.38;99535.13;5027112;28;20048;-74
2022/04/09 07:50:52;;;;;;;9.32;2.28;;;;;;;5.32;78.34;99539.38;5028793;28;20044;-74
2022/04/09 07:53:20;;;;;;;12.82;3.30;;;;;;;5.24;78.27;99549.38;5048265;28;20057;-74
2022/04/09 07:55:47;;;;;;;10.70;2.88;;;;;;;5.41;78.41;99545.84;5012375;28;20057;-74
2022/04/09 07:58:14;;;;;;;15.77;3.22;;;;;;;5.77;76.60;99540.34;5008566;28;20045;-74
2022/04/09 08:00:44;;;;;;;12.38;2.25;;;;;;;5.92;75.48;99546.50;5028930;28;20502;-73
2022/04/09 08:03:11;;;;;;;10.48;3.22;;;;;;;6.00;73.86;99557.34;5049993;28;20053;-73
2022/04/09 08:05:39;;;;;;;13.50;2.40;;;;;;;6.13;73.27;99547.03;4988605;28;20044;-73
2022/04/09 08:08:07;;;;;;;9.32;3.50;;;;;;;6.14;71.46;99557.41;5011269;28;20074;-74
2022/04/09 08:10:34;;;;;;;20.10;3.25;;;;;;;6.38;71.62;99559.50;5007757;28;20612;-74
2022/04/09 08:13:02;;;;;;;13.75;2.72;;;;;;;6.52;69.79;99549.91;5031352;28;20166;-75
2022/04/09 08:15:29;;;;;;;15.30;2.50;;;;;;;6.25;69.53;99559.38;4996524;28;20135;-74
2022/04/09 08:17:57;;;;;;;8.00;2.90;;;;;;;6.09;70.41;99577.72;4997858;28;20522;-74
2022/04/09 08:20:41;;;;;;;25.60;3.75;;;;;;;6.27;69.43;99579.28;5017720;28;20067;-75
2022/04/09 08:23:08;;;;;;;6.07;2.13;;;;;;;6.53;68.06;99572.53;5007220;28;20072;-74
2022/04/09 08:25:35;;;;;;;10.95;2.58;;;;;;;6.72;66.06;99566.22;5011831;28;20107;-75
2022/04/09 08:28:03;;;;;;;12.95;2.63;;;;;;;7.20;65.08;99580.69;5010439;28;20156;-74
2022/04/09 08:30:30;;;;;;;14.63;2.50;;;;;;;7.42;64.01;99602.94;5011985;28;20055;-74
2022/04/09 08:32:58;;;;;;;11.45;3.20;;;;;;;6.85;63.08;99606.41;5031251;28;20045;-74
2022/04/09 08:35:26;;;;;;;17.60;3.33;;;;;;;6.65;64.30;99610.19;5027938;28;20063;-74
2022/04/09 08:37:54;;;;;;;7.63;2.20;;;;;;;6.88;64.38;99603.59;5013307;28;20522;-75
2022/04/09 08:40:24;;;;;;;7.57;1.95;;;;;;;6.71;63.84;99596.75;5012235;28;20055;-74
2022/04/09 08:42:51;;;;;;;13.60;2.55;;;;;;;7.08;63.84;99591.94;5029792;28;20447;-74
2022/04/09 08:45:18;;;;;;;14.20;2.70;;;;;;;7.13;63.15;99623.06;5012118;28;20522;-75
2022/04/09 08:47:46;;;;;;;8.15;2.03;;;;;;;7.36;63.36;99593.69;5013859;28;20045;-75
2022/04/09 08:50:14;;;;;;;15.85;2.92;;;;;;;7.14;61.07;99590.69;5029072;28;20033;-75
2022/04/09 08:52:42;;;;;;;6.82;2.33;;;;;;;7.47;61.08;99606.94;4995698;28;20053;-75
2022/04/09 08:55:13;;;;;;;10.30;1.95;;;;;;;7.36;60.91;99596.31;5030588;28;20076;-75
2022/04/09 08:57:41;;;;;;;11.13;1.95;;;;;;;7.73;60.18;99600.06;5017896;28;20100;-75
2022/04/09 09:00:12;;;;;;;7.63;1.80;;;;;;;7.68;59.19;99606.53;5014913;28;20036;-74
2022/04/09 09:02:54;;;;;;;6.07;1.98;;;;;;;7.91;58.73;99605.06;5009520;28;20049;-74
2022/04/09 09:05:38;;;;;;;7.30;2.08;;;;;;;8.05;56.38;99597.16;5010786;28;20540;-74
2022/04/09 09:08:10;;;;;;;10.02;2.70;;;;;;;7.96;56.64;99610.84;4996965;28;20128;-73
2022/04/09 09:10:38;;;;;;;13.88;2.35;;;;;;;7.86;57.57;99605.38;5025906;28;20124;-73
2022/04/09 09:13:11;;;;;;;13.85;1.83;;;;;;;8.01;56.76;99601.75;5037911;28;20466;-73
2022/04/09 09:15:53;;;;;;;7.00;1.85;;;;;;;7.88;56.84;99600.88;5015064;28;20049;-74
2022/04/09 09:18:23;;;;;;;11.48;2.60;;;;;;;7.81;55.47;99603.03;5006429;28;20049;-73
2022/04/09 09:20:52;;;;;;;8.10;1.75;;;;;;;7.74;56.30;99603.53;5004316;28;20951;-74
2022/04/09 09:23:20;;;;;;;11.98;2.85;;;;;;;7.89;55.77;99602.56;5012190;28;20415;-74
2022/04/09 09:25:54;;;;;;;12.07;2.10;;;;;;;7.87;55.13;99609.66;5009411;28;20060;-74
2022/04/09 09:28:24;;;;;;;5.10;2.03;;;;;;;7.90;55.18;99633.06;5013002;28;20053;-74
2022/04/09 09:30:53;;;;;;;17.35;2.70;;;;;;;7.79;52.12;99620.66;5044754;28;20363;-74
2022/04/09 09:33:21;;;;;;;10.27;1.50;;;;;;;7.91;51.79;99634.72;5012641;28;20045;-74
2022/04/09 09:36:30;;;;;;;9.60;1.83;;;;;;;7.76;50.94;99606.91;5010467;28;20049;-73
2022/04/09 09:39:04;;;;;;;7.75;1.83;;;;;;;7.70;52.14;99609.88;5002608;28;20045;-74
2022/04/09 09:41:31;;;;;;;9.23;1.80;;;;;;;7.95;51.59;99619.66;5019386;28;20045;-73
2022/04/09 09:44:02;;;;;;;7.45;2.10;;;;;;;7.75;52.42;99621.78;5024996;28;20052;-73
2022/04/09 09:46:30;;;;;;;14.93;2.42;;;;;;;7.66;51.65;99618.91;5011705;28;20040;-74
2022/04/09 09:48:58;;;;;;;10.77;2.22;;;;;;;8.36;50.32;99609.97;5009482;28;20041;-73
2022/04/09 09:51:25;;;;;;;10.20;2.00;;;;;;;8.47;50.18;99624.19;4995455;28;20053;-73
2022/04/09 09:54:12;;;;;;;6.72;1.83;;;;;;;8.52;49.51;99615.06;5026417;28;20063;-73
2022/04/09 09:56:41;;;;;;;19.55;1.83;;;;;;;8.82;49.95;99609.50;5000858;28;20068;-74
2022/04/09 09:59:10;;;;;;;10.02;1.95;;;;;;;8.69;49.89;99624.44;5026178;28;20037;-73
2022/04/09 10:01:42;;;;;;;6.82;1.92;;;;;;;8.49;50.53;99625.75;5007477;28;20217;-73
2022/04/09 10:04:11;;;;;;;11.68;1.98;;;;;;;8.26;49.61;99621.97;5006570;28;20064;-72
2022/04/09 10:06:42;;;;;;;6.30;1.67;;;;;;;7.92;49.34;99625.94;5011383;28;20045;-73
2022/04/09 10:09:10;;;;;;;8.68;1.48;;;;;;;8.26;48.89;99618.53;5026540;28;20056;-73
2022/04/09 10:11:47;;;;;;;7.85;2.13;;;;;;;8.95;47.70;99630.53;4995388;28;20053;-73
2022/04/09 10:14:14;;;;;;;10.65;1.98;;;;;;;8.69;48.32;99616.56;5010940;28;20061;-73
2022/04/09 10:16:43;;;;;;;9.90;2.03;;;;;;;8.91;48.49;99618.56;5010361;28;20179;-73
2022/04/09 10:19:11;;;;;;;6.78;1.73;;;;;;;9.04;47.19;99637.78;5026937;28;20049;-72
2022/04/09 10:21:39;;;;;;;6.28;1.90;;;;;;;8.99;48.33;99616.25;5011650;28;20533;-74
2022/04/09 10:24:14;;;;;;;8.55;2.38;;;;;;;9.08;46.99;99626.13;5012992;28;20170;-74
2022/04/09 10:26:42;;;;;;;14.03;2.40;;;;;;;9.24;47.26;99627.72;5026757;28;20104;-74
2022/04/09 10:29:10;;;;;;;8.00;1.60;;;;;;;8.73;48.20;99630.28;4993947;28;20049;-73
2022/04/09 10:31:41;;;;;;;7.43;1.63;;;;;;;8.50;47.95;99622.16;5011964;28;20140;-74
2022/04/09 10:34:16;;;;;;;5.68;1.20;;;;;;;8.23;48.53;99624.78;5027253;28;20398;-73
2022/04/09 10:36:46;;;;;;;9.05;1.52;;;;;;;8.26;48.63;99650.81;5029837;28;20398;-73
2022/04/09 10:39:25;;;;;;;6.00;1.60;;;;;;;8.20;48.65;99639.91;5010884;28;20049;-73
2022/04/09 10:41:56;;;;;;;7.47;1.73;;;;;;;8.34;48.73;99643.31;5008794;28;20041;-73
2022/04/09 10:44:49;;;;;;;6.38;1.67;;;;;;;8.23;49.77;99639.69;5009647;28;20053;-74
2022/04/09 10:47:16;;;;;;;9.05;1.73;;;;;;;8.23;49.40;99631.81;5027122;28;20064;-74
2022/04/09 10:50:02;;;;;;;8.57;1.77;;;;;;;8.27;50.47;99646.41;5027205;28;20076;-74
2022/04/09 10:52:30;;;;;;;6.63;1.83;;;;;;;8.86;49.04;99637.22;5045112;28;20044;-75
2022/04/09 10:55:09;;;;;;;5.40;1.70;;;;;;;9.49;47.59;99629.44;5006587;28;20575;-75
2022/04/09 10:57:41;;;;;;;11.30;2.17;;;;;;;9.61;47.91;99621.53;5022314;28;20037;-74
2022/04/09 11:00:29;;;;;;;8.13;1.83;;;;;;;9.62;47.09;99617.97;5025990;28;20204;-74
2022/04/09 11:03:11;;;;;;;11.98;2.28;;;;;;;9.75;46.22;99620.56;5027823;28;20041;-74
2022/04/09 11:05:41;;;;;;;5.95;1.88;;;;;;;9.76;46.37;99631.91;5038033;28;20052;-73
2022/04/09 11:08:19;;;;;;;6.68;1.63;;;;;;;9.63;47.12;99643.28;5028964;28;20056;-73
2022/04/09 11:10:46;;;;;;;7.68;2.08;;;;;;;9.89;46.72;99638.81;5026427;28;20057;-73
2022/04/09 11:13:13;;;;;;;10.32;1.63;;;;;;;9.61;46.92;99641.72;5012530;28;20037;-73
2022/04/09 11:15:43;;;;;;;6.85;1.33;;;;;;;9.37;47.75;99655.63;5010468;28;20068;-73
2022/04/09 11:18:10;;;;;;;5.53;1.25;;;;;;;9.49;47.21;99634.69;5021859;28;20541;-74
2022/04/09 11:20:39;;;;;;;8.07;1.27;;;;;;;10.33;45.59;99640.03;5017117;28;20049;-74
2022/04/09 11:23:08;;;;;;;7.03;1.48;;;;;;;10.25;44.78;99623.13;4991679;28;20072;-73
2022/04/09 11:25:35;;;;;;;4.18;1.30;;;;;;;10.14;45.18;99631.78;5011196;28;20060;-74
2022/04/09 11:28:21;;;;;;;3.92;1.00;;;;;;;9.93;44.65;99617.56;5012438;28;20129;-74
2022/04/09 11:30:57;;;;;;;3.60;1.30;;;;;;;10.04;44.89;99621.09;5002933;28;20060;-74
2022/04/09 11:33:25;;;;;;;4.57;1.27;;;;;;;9.87;44.72;99622.31;5016151;28;20399;-75
2022/04/09 11:35:52;;;;;;;5.18;1.17;;;;;;;10.39;43.72;99631.69;5047697;28;20060;-75
2022/04/09 11:38:23;;;;;;;9.52;1.50;;;;;;;10.59;42.97;99640.75;5017648;28;20045;-74
2022/04/09 11:40:51;;;;;;;8.80;1.67;;;;;;;10.07;43.97;99626.13;5027257;28;20049;-74
2022/04/09 11:43:18;;;;;;;6.97;1.30;;;;;;;10.30;43.75;99626.25;5033979;28;20059;-74
2022/04/09 11:45:46;;;;;;;6.10;1.48;;;;;;;10.59;43.58;99617.06;5013466;28;20048;-74